Time;durP1;ratioP1;P1;durP2;ratioP2;P2;SDS_P1;SDS_P2;PMS_P1;PMS_P2;Temp;Humidity;BMP_temperature;BMP_pressure;BME280_temperature;BME280_humidity;BME280_pressure;Samples;Min_cycle;Max_cycle;Signal;HPM_P1;HPM_P2
2023/04/06 00:01:38;;;;;;;10.40;5.95;;;4.50;95.00;;;;;;5074335;28;20029;-78
2023/04/06 00:04:04;;;;;;;10.10;5.93;;;4.40;95.10;;;;;;5057862;28;20134;-79
2023/04/06 00:06:31;;;;;;;8.27;5.70;;;4.40;95.40;;;;;;5075145;28;20042;-77
2023/04/06 00:08:57;;;;;;;9.68;5.68;;;4.40;95.40;;;;;;5059022;28;20521;-78
2023/04/06 00:11:23;;;;;;;9.05;6.20;;;4.40;95.60;;;;;;5067471;28;20075;-79
2023/04/06 00:13:49;;;;;;;8.95;6.07;;;4.30;95.60;;;;;;5056141;28;20124;-78
2023/04/06 00:16:14;;;;;;;8.95;5.75;;;4.30;95.80;;;;;;5053529;28;20043;-79
2023/04/06 00:18:40;;;;;;;8.57;5.47;;;4.30;95.90;;;;;;5073904;28;20032;-78
2023/04/06 00:21:06;;;;;;;9.00;5.70;;;4.30;95.90;;;;;;5059662;28;20149;-78
2023/04/06 00:23:32;;;;;;;8.93;5.60;;;4.20;96.00;;;;;;5061781;28;20042;-78
2023/04/06 00:25:58;;;;;;;8.90;6.30;;;4.20;96.20;;;;;;5060509;28;20502;-78
2023/04/06 00:28:26;;;;;;;10.32;5.80;;;4.20;96.40;;;;;;5075635;28;20081;-77
2023/04/06 00:30:54;;;;;;;9.05;5.95;;;4.20;96.50;;;;;;5082567;28;20040;-78
2023/04/06 00:33:20;;;;;;;10.57;6.38;;;4.10;97.00;;;;;;5077077;28;20043;-78
2023/04/06 00:35:46;;;;;;;10.68;5.88;;;4.00;97.70;;;;;;5052654;28;20102;-79
2023/04/06 00:38:12;;;;;;;8.35;5.80;;;4.00;97.60;;;;;;5055835;28;20040;-78
2023/04/06 00:40:39;;;;;;;10.93;6.30;;;4.10;97.80;;;;;;5057161;28;20036;-79
2023/04/06 00:43:06;;;;;;;10.00;6.28;;;4.00;97.60;;;;;;5067889;28;20076;-78
2023/04/06 00:45:33;;;;;;;7.43;5.50;;;3.90;97.70;;;;;;5053362;28;20052;-78
2023/04/06 00:47:59;;;;;;;9.38;6.03;;;3.90;97.80;;;;;;5038902;28;20040;-78
2023/04/06 00:50:25;;;;;;;8.80;5.50;;;3.90;97.90;;;;;;5050314;28;20403;-78
2023/04/06 00:52:51;;;;;;;9.40;5.90;;;3.90;98.10;;;;;;5073087;28;20543;-78
2023/04/06 00:55:17;;;;;;;9.32;5.88;;;3.80;98.30;;;;;;5089404;28;20119;-78
2023/04/06 00:57:43;;;;;;;10.23;6.32;;;3.80;98.40;;;;;;5040402;28;20186;-79
2023/04/06 01:00:09;;;;;;;8.55;6.07;;;3.70;98.80;;;;;;5039841;28;20072;-79
2023/04/06 01:02:36;;;;;;;9.77;6.07;;;3.70;99.10;;;;;;5053077;28;20484;-79
2023/04/06 01:05:02;;;;;;;11.13;6.72;;;3.70;99.20;;;;;;5055926;28;20046;-78
2023/04/06 01:07:28;;;;;;;9.60;6.20;;;3.70;99.40;;;;;;5073701;28;20067;-79
2023/04/06 01:09:56;;;;;;;12.10;6.72;;;3.60;99.30;;;;;;5040047;28;20512;-78
2023/04/06 01:12:22;;;;;;;9.75;6.07;;;3.60;99.50;;;;;;5040041;28;20043;-78
2023/04/06 01:14:48;;;;;;;9.25;6.32;;;3.60;99.70;;;;;;5072750;28;20036;-79
2023/04/06 01:17:14;;;;;;;9.55;6.40;;;3.50;99.90;;;;;;5045486;28;20431;-78
2023/04/06 01:19:42;;;;;;;10.82;6.35;;;3.50;99.90;;;;;;5029787;28;20361;-77
2023/04/06 01:22:08;;;;;;;9.15;6.25;;;3.40;99.90;;;;;;5036780;28;20043;-78
2023/04/06 01:24:34;;;;;;;8.77;5.95;;;3.40;99.90;;;;;;5055597;28;20459;-78
2023/04/06 01:27:00;;;;;;;10.48;6.35;;;3.40;99.90;;;;;;5054762;28;20096;-77
2023/04/06 01:29:26;;;;;;;11.75;6.10;;;3.40;99.90;;;;;;5072622;28;20512;-79
2023/04/06 01:31:52;;;;;;;12.35;6.57;;;3.40;99.90;;;;;;5053049;28;20033;-78
2023/04/06 01:34:18;;;;;;;10.85;6.07;;;3.30;99.90;;;;;;5091417;28;20047;-78
2023/04/06 01:36:44;;;;;;;9.45;6.25;;;3.30;99.90;;;;;;5056113;28;20040;-78
2023/04/06 01:39:10;;;;;;;8.63;6.78;;;3.40;99.90;;;;;;5075874;28;20036;-78
2023/04/06 01:41:36;;;;;;;9.73;6.15;;;3.30;99.90;;;;;;5055143;28;20369;-77
2023/04/06 01:44:02;;;;;;;9.77;6.25;;;3.20;99.90;;;;;;5052307;28;20050;-77
2023/04/06 01:46:28;;;;;;;10.50;6.22;;;3.20;99.90;;;;;;5073144;28;20032;-78
2023/04/06 01:48:54;;;;;;;9.05;6.47;;;3.10;99.90;;;;;;5059959;28;20040;-78
2023/04/06 01:51:20;;;;;;;10.95;6.53;;;3.10;99.90;;;;;;5074962;28;20037;-78
2023/04/06 01:53:45;;;;;;;11.43;6.70;;;3.10;99.90;;;;;;5042780;28;20036;-78
2023/04/06 01:56:11;;;;;;;9.50;6.45;;;3.10;99.90;;;;;;5075389;28;20048;-77
2023/04/06 01:58:37;;;;;;;13.82;7.18;;;3.00;99.90;;;;;;5093447;28;20119;-78
2023/04/06 02:01:03;;;;;;;10.32;7.03;;;3.00;99.90;;;;;;5073265;28;20038;-78
2023/04/06 02:03:28;;;;;;;10.55;6.25;;;3.00;99.90;;;;;;5069269;28;20036;-78
2023/04/06 02:05:54;;;;;;;10.50;6.80;;;2.90;99.90;;;;;;5055765;28;20044;-79
2023/04/06 02:08:20;;;;;;;10.27;6.70;;;2.90;99.90;;;;;;5059783;28;20114;-78
2023/04/06 02:10:46;;;;;;;10.45;6.35;;;2.90;99.90;;;;;;5059940;28;20066;-78
2023/04/06 02:13:11;;;;;;;9.68;6.50;;;2.90;99.90;;;;;;5075658;28;20134;-78
2023/04/06 02:15:37;;;;;;;9.35;6.28;;;2.80;99.90;;;;;;5075065;28;20035;-77
2023/04/06 02:18:03;;;;;;;8.85;6.60;;;2.80;99.90;;;;;;5046341;28;20491;-78
2023/04/06 02:20:29;;;;;;;11.27;6.93;;;2.80;99.90;;;;;;5053153;28;20032;-77
2023/04/06 02:22:58;;;;;;;9.93;6.35;;;2.70;99.90;;;;;;5073476;28;20077;-78
2023/04/06 02:25:24;;;;;;;9.45;6.40;;;2.70;99.90;;;;;;5094623;28;20066;-78
2023/04/06 02:27:50;;;;;;;10.77;6.93;;;2.70;99.90;;;;;;5062675;28;20038;-77
2023/04/06 02:30:16;;;;;;;13.40;7.13;;;2.70;99.90;;;;;;5056883;28;20040;-78
2023/04/06 02:32:41;;;;;;;10.77;6.57;;;2.70;99.90;;;;;;5067828;28;20043;-78
2023/04/06 02:35:08;;;;;;;12.25;7.53;;;2.70;99.90;;;;;;5077240;28;20071;-78
2023/04/06 02:37:33;;;;;;;10.57;7.05;;;2.60;99.90;;;;;;5085415;28;20107;-78
2023/04/06 02:39:59;;;;;;;12.15;6.97;;;2.60;99.90;;;;;;5073825;28;20469;-78
2023/04/06 02:42:25;;;;;;;11.20;7.25;;;2.60;99.90;;;;;;5071255;28;20051;-79
2023/04/06 02:44:50;;;;;;;8.38;6.43;;;2.60;99.90;;;;;;5088792;28;20115;-78
2023/04/06 02:47:16;;;;;;;11.35;7.72;;;2.60;99.90;;;;;;5088052;28;20037;-78
2023/04/06 02:49:42;;;;;;;9.27;7.18;;;2.60;99.90;;;;;;5055374;28;20035;-79
2023/04/06 02:52:08;;;;;;;9.38;7.00;;;2.50;99.90;;;;;;5040777;28;20044;-78
2023/04/06 02:54:33;;;;;;;12.45;7.25;;;2.50;99.90;;;;;;5057657;28;20396;-77
2023/04/06 02:56:59;;;;;;;11.32;7.60;;;2.50;99.90;;;;;;5053890;28;20040;-77
2023/04/06 02:59:25;;;;;;;11.98;7.50;;;2.40;99.90;;;;;;5071174;28;20063;-78
2023/04/06 03:01:51;;;;;;;11.38;7.22;;;2.40;99.90;;;;;;5053321;28;20492;-78
2023/04/06 03:04:16;;;;;;;10.18;7.75;;;2.40;99.90;;;;;;5073857;28;20042;-78
2023/04/06 03:06:42;;;;;;;13.38;7.57;;;2.30;99.90;;;;;;5057912;28;20480;-78
2023/04/06 03:09:08;;;;;;;12.68;7.40;;;2.30;99.90;;;;;;5068053;28;20048;-78
2023/04/06 03:11:33;;;;;;;12.10;7.82;;;2.40;99.90;;;;;;5073171;28;20043;-79
2023/04/06 03:13:59;;;;;;;12.45;7.70;;;2.20;99.90;;;;;;5055662;28;20036;-78
2023/04/06 03:16:25;;;;;;;11.55;8.43;;;2.20;99.90;;;;;;5090739;28;20127;-78
2023/04/06 03:18:51;;;;;;;10.05;7.60;;;2.20;99.90;;;;;;5054405;28;20036;-78
2023/04/06 03:21:16;;;;;;;15.07;8.75;;;2.20;99.90;;;;;;5072323;28;20396;-79
2023/04/06 03:23:42;;;;;;;13.63;8.20;;;2.00;99.90;;;;;;5052644;28;20036;-78
2023/04/06 03:26:08;;;;;;;12.30;8.30;;;2.00;99.90;;;;;;5053827;28;20036;-78
2023/04/06 03:28:34;;;;;;;12.07;8.23;;;1.90;99.90;;;;;;5074436;28;20043;-79
2023/04/06 03:31:01;;;;;;;13.80;8.38;;;1.90;99.90;;;;;;5068941;28;20397;-79
2023/04/06 03:33:27;;;;;;;11.38;7.60;;;1.90;99.90;;;;;;5055808;28;20178;-78
2023/04/06 03:35:53;;;;;;;10.73;8.15;;;1.90;99.90;;;;;;5063924;28;20548;-77
2023/04/06 03:38:19;;;;;;;10.43;7.38;;;1.90;99.90;;;;;;5053080;28;20024;-78
2023/04/06 03:40:45;;;;;;;11.25;7.80;;;1.80;99.90;;;;;;5073745;28;20442;-78
2023/04/06 03:43:11;;;;;;;10.90;7.97;;;1.90;99.90;;;;;;5015589;28;20087;-78
2023/04/06 03:45:37;;;;;;;12.15;8.25;;;2.20;99.90;;;;;;5041170;28;20032;-79
2023/04/06 03:48:03;;;;;;;11.55;7.95;;;1.80;99.90;;;;;;5057341;28;20479;-78
2023/04/06 03:50:29;;;;;;;14.05;8.23;;;1.80;99.90;;;;;;5038471;28;20047;-78
2023/04/06 03:52:55;;;;;;;11.52;8.38;;;1.80;99.90;;;;;;5041506;28;20036;-78
2023/04/06 03:55:21;;;;;;;16.13;8.77;;;1.80;99.90;;;;;;5057432;28;20054;-78
2023/04/06 03:57:46;;;;;;;14.18;9.00;;;1.80;99.90;;;;;;5056720;28;20036;-79
2023/04/06 04:00:12;;;;;;;12.82;8.70;;;2.20;99.90;;;;;;5074307;28;20039;-80
2023/04/06 04:02:39;;;;;;;15.27;8.45;;;1.80;99.90;;;;;;5056106;28;20036;-79
2023/04/06 04:05:05;;;;;;;14.15;8.73;;;2.00;99.90;;;;;;5073918;28;20032;-78
2023/04/06 04:07:31;;;;;;;14.07;8.93;;;1.80;99.90;;;;;;5023397;28;20125;-78
2023/04/06 04:09:56;;;;;;;14.80;8.30;;;1.70;99.90;;;;;;5055665;28;20466;-77
2023/04/06 04:12:22;;;;;;;13.35;8.70;;;1.80;99.90;;;;;;5041675;28;20119;-78
2023/04/06 04:14:48;;;;;;;13.82;8.73;;;1.70;99.90;;;;;;5047583;28;20043;-78
2023/04/06 04:17:13;;;;;;;11.10;8.13;;;1.70;99.90;;;;;;5056639;28;20036;-79
2023/04/06 04:19:39;;;;;;;14.45;8.93;;;1.70;99.90;;;;;;5056323;28;20044;-78
2023/04/06 04:22:06;;;;;;;14.57;9.13;;;1.70;99.90;;;;;;5030944;28;20508;-78
2023/04/06 04:24:32;;;;;;;15.00;10.27;;;1.70;99.90;;;;;;5067629;28;20052;-77
2023/04/06 04:27:00;;;;;;;14.68;8.95;;;1.60;99.90;;;;;;5054504;28;20040;-78
2023/04/06 04:29:26;;;;;;;15.75;9.18;;;1.60;99.90;;;;;;5056879;28;20046;-79
2023/04/06 04:31:52;;;;;;;14.13;9.07;;;1.60;99.90;;;;;;5055765;28;20442;-78
2023/04/06 04:34:20;;;;;;;15.25;9.30;;;1.60;99.90;;;;;;5039033;28;20036;-78
2023/04/06 04:36:46;;;;;;;12.90;8.45;;;1.70;99.90;;;;;;5054768;28;20080;-78
2023/04/06 04:39:12;;;;;;;16.20;9.40;;;1.80;99.90;;;;;;5056137;28;20470;-79
2023/04/06 04:41:38;;;;;;;13.68;8.93;;;1.70;99.90;;;;;;5021809;28;20079;-79
2023/04/06 04:44:04;;;;;;;15.68;9.63;;;1.50;99.90;;;;;;5056290;28;20687;-78
2023/04/06 04:46:29;;;;;;;15.20;9.88;;;1.50;99.90;;;;;;5055943;28;20036;-78
2023/04/06 04:48:55;;;;;;;15.02;9.48;;;1.60;99.90;;;;;;5039135;28;20051;-78
2023/04/06 04:51:21;;;;;;;13.15;9.20;;;1.50;99.90;;;;;;5040419;28;20051;-78
2023/04/06 04:53:47;;;;;;;14.40;9.13;;;1.50;99.90;;;;;;5072399;28;20492;-79
2023/04/06 04:56:12;;;;;;;17.80;9.13;;;1.60;99.90;;;;;;5023788;28;20043;-78
2023/04/06 04:58:38;;;;;;;13.80;9.38;;;1.50;99.90;;;;;;5036883;28;20039;-79
2023/04/06 05:01:04;;;;;;;13.55;9.50;;;2.30;99.90;;;;;;5052872;28;20136;-79
2023/04/06 05:03:30;;;;;;;15.32;9.82;;;1.50;99.90;;;;;;5040369;28;20040;-78
2023/04/06 05:05:56;;;;;;;15.93;9.15;;;1.50;99.90;;;;;;5051822;28;20400;-78
2023/04/06 05:08:21;;;;;;;14.73;9.43;;;1.50;99.90;;;;;;5055808;28;20039;-78
2023/04/06 05:10:48;;;;;;;13.90;9.10;;;1.50;99.90;;;;;;5025789;28;20048;-78
2023/04/06 05:13:14;;;;;;;14.60;9.27;;;1.50;99.90;;;;;;5036125;28;20123;-78
2023/04/06 05:15:41;;;;;;;13.90;9.57;;;1.50;99.90;;;;;;5054188;28;20055;-78
2023/04/06 05:18:09;;;;;;;13.95;8.88;;;1.50;99.90;;;;;;5048696;28;20111;-78
2023/04/06 05:20:36;;;;;;;15.40;9.80;;;1.60;99.90;;;;;;5051896;28;20101;-78
2023/04/06 05:23:01;;;;;;;17.88;9.98;;;-0.20;99.90;;;;;;5053141;28;20076;-77
2023/04/06 05:25:27;;;;;;;18.08;9.85;;;1.60;99.90;;;;;;5054237;28;20068;-78
2023/04/06 05:27:53;;;;;;;19.30;10.48;;;2.10;99.90;;;;;;5055716;28;20039;-77
2023/04/06 05:30:20;;;;;;;13.57;9.57;;;1.70;99.90;;;;;;5047911;28;20037;-78
2023/04/06 05:32:46;;;;;;;14.55;9.63;;;1.70;99.90;;;;;;5058211;28;20111;-78
2023/04/06 05:35:12;;;;;;;14.43;9.73;;;1.70;99.90;;;;;;5050958;28;20048;-78
2023/04/06 05:37:38;;;;;;;17.35;9.52;;;1.70;99.90;;;;;;5052586;28;20483;-77
2023/04/06 05:40:06;;;;;;;17.65;10.32;;;1.80;99.90;;;;;;5072487;28;20048;-77
2023/04/06 05:42:39;;;;;;;15.75;9.98;;;1.80;99.90;;;;;;5074327;28;20043;-77
2023/04/06 05:45:10;;;;;;;16.45;9.63;;;1.90;99.90;;;;;;5079546;28;20444;-78
2023/04/06 05:47:36;;;;;;;16.15;9.82;;;1.90;99.90;;;;;;5067142;28;20038;-77
2023/04/06 05:50:03;;;;;;;14.02;8.55;;;1.90;99.90;;;;;;5075911;28;20089;-77
2023/04/06 05:52:28;;;;;;;17.80;9.23;;;2.00;99.90;;;;;;5089465;28;20495;-77
2023/04/06 05:54:54;;;;;;;15.15;9.52;;;2.10;99.90;;;;;;5093389;28;20035;-77
2023/04/06 05:57:20;;;;;;;15.45;9.57;;;2.10;99.90;;;;;;5092779;28;20110;-77
2023/04/06 05:59:46;;;;;;;16.42;10.52;;;2.10;99.90;;;;;;5078498;28;20032;-78
2023/04/06 06:02:11;;;;;;;15.05;8.80;;;2.20;99.90;;;;;;5073305;28;20034;-78
2023/04/06 06:04:37;;;;;;;15.93;8.43;;;2.30;99.90;;;;;;5075662;28;20183;-79
2023/04/06 06:07:03;;;;;;;15.90;9.27;;;2.30;99.90;;;;;;5093736;28;20402;-78
2023/04/06 06:09:29;;;;;;;16.33;9.30;;;2.40;99.90;;;;;;5076351;28;20047;-76
2023/04/06 06:11:55;;;;;;;16.90;10.07;;;2.40;99.90;;;;;;5074316;28;20032;-77
2023/04/06 06:14:21;;;;;;;14.68;10.35;;;2.50;99.90;;;;;;5092750;28;20036;-79
2023/04/06 06:16:47;;;;;;;15.20;10.02;;;2.60;99.90;;;;;;5096123;28;20073;-79
2023/04/06 06:19:13;;;;;;;15.27;9.35;;;2.60;99.90;;;;;;5089338;28;20040;-78
2023/04/06 06:21:39;;;;;;;33.53;10.48;;;2.70;99.90;;;;;;5075935;28;20369;-78
2023/04/06 06:24:05;;;;;;;18.30;9.70;;;2.80;99.90;;;;;;5092304;28;20044;-77
2023/04/06 06:26:31;;;;;;;19.17;10.38;;;2.80;99.90;;;;;;5078610;28;20050;-77
2023/04/06 06:28:57;;;;;;;14.95;10.00;;;2.90;99.90;;;;;;5095596;28;20039;-77
2023/04/06 06:31:22;;;;;;;17.05;9.93;;;3.10;99.90;;;;;;5062830;28;20387;-77
2023/04/06 06:33:52;;;;;;;16.58;10.68;;;3.10;99.90;;;;;;5079994;28;20036;-77
2023/04/06 06:36:18;;;;;;;14.82;10.45;;;3.20;99.90;;;;;;5050909;28;20056;-77
2023/04/06 06:38:44;;;;;;;13.55;9.52;;;3.30;99.90;;;;;;5057980;28;20136;-78
2023/04/06 06:41:10;;;;;;;15.48;9.00;;;3.40;99.90;;;;;;5038307;28;20040;-77
2023/04/06 06:43:36;;;;;;;10.93;8.05;;;3.50;99.90;;;;;;5045789;28;20043;-78
2023/04/06 06:46:02;;;;;;;13.27;8.77;;;3.60;99.90;;;;;;5055376;28;20098;-78
2023/04/06 06:48:28;;;;;;;16.50;9.98;;;3.60;99.90;;;;;;5059873;28;20039;-78
2023/04/06 06:50:54;;;;;;;16.02;10.88;;;3.70;99.90;;;;;;5074861;28;20121;-79
2023/04/06 06:53:20;;;;;;;14.05;9.43;;;3.90;99.90;;;;;;5057469;28;20036;-78
2023/04/06 06:55:46;;;;;;;15.30;10.38;;;4.00;99.90;;;;;;5053626;28;20033;-77
2023/04/06 06:58:11;;;;;;;14.93;10.35;;;4.10;99.90;;;;;;5048165;28;20109;-77
2023/04/06 07:00:37;;;;;;;16.20;10.25;;;4.30;99.90;;;;;;5075111;28;20044;-78
2023/04/06 07:03:03;;;;;;;14.98;10.07;;;4.40;99.90;;;;;;5073593;28;20055;-77
2023/04/06 07:05:29;;;;;;;16.23;11.05;;;4.60;99.90;;;;;;5070578;28;20036;-77
2023/04/06 07:07:55;;;;;;;18.52;10.35;;;4.90;99.90;;;;;;5056119;28;20522;-77
2023/04/06 07:10:22;;;;;;;13.50;9.75;;;5.20;99.90;;;;;;5035989;28;20116;-77
2023/04/06 07:12:48;;;;;;;14.75;8.98;;;5.40;99.90;;;;;;5055668;28;20127;-77
2023/04/06 07:15:13;;;;;;;20.33;10.18;;;5.60;99.90;;;;;;5058565;28;20463;-77
2023/04/06 07:17:41;;;;;;;15.55;9.52;;;5.90;99.90;;;;;;5066390;28;20036;-77
2023/04/06 07:20:07;;;;;;;16.77;11.00;;;6.00;99.90;;;;;;5021528;28;20105;-77
2023/04/06 07:22:32;;;;;;;16.92;9.95;;;6.20;99.90;;;;;;5035654;28;20051;-77
2023/04/06 07:24:58;;;;;;;16.98;9.80;;;6.50;99.90;;;;;;5038846;28;20395;-77
2023/04/06 07:27:24;;;;;;;15.30;9.80;;;6.70;99.90;;;;;;5051401;28;20114;-77
2023/04/06 07:29:50;;;;;;;13.10;9.27;;;7.00;99.90;;;;;;5078040;28;20392;-78
2023/04/06 07:32:16;;;;;;;14.73;9.27;;;7.20;99.90;;;;;;5059597;28;20039;-77
2023/04/06 07:34:41;;;;;;;14.60;9.75;;;7.20;99.90;;;;;;5010547;28;20040;-77
2023/04/06 07:37:07;;;;;;;15.38;10.10;;;7.10;99.90;;;;;;5080055;28;20048;-77
2023/04/06 07:39:34;;;;;;;14.02;9.93;;;7.10;99.90;;;;;;5085847;28;20032;-77
2023/04/06 07:42:00;;;;;;;14.90;10.20;;;7.20;99.90;;;;;;5069877;28;20565;-78
2023/04/06 07:44:26;;;;;;;14.00;9.65;;;7.40;99.90;;;;;;5062126;28;20076;-78
2023/04/06 07:46:51;;;;;;;15.15;9.70;;;7.60;99.90;;;;;;5054874;28;20063;-77
2023/04/06 07:49:17;;;;;;;17.17;10.15;;;7.70;99.60;;;;;;5088593;28;20119;-77
2023/04/06 07:51:43;;;;;;;16.10;10.30;;;7.80;99.10;;;;;;5050904;28;20032;-76
2023/04/06 07:54:09;;;;;;;14.20;9.85;;;7.80;99.00;;;;;;5086705;28;20151;-76
2023/04/06 07:56:34;;;;;;;15.40;9.98;;;7.80;99.00;;;;;;5065324;28;20408;-76
2023/04/06 07:59:00;;;;;;;15.43;9.77;;;7.70;99.20;;;;;;5078851;28;20067;-76
2023/04/06 08:01:27;;;;;;;17.40;11.05;;;7.70;99.40;;;;;;5081739;28;20040;-77
2023/04/06 08:03:55;;;;;;;18.00;10.73;;;7.70;99.60;;;;;;5069808;28;20036;-77
2023/04/06 08:06:21;;;;;;;17.50;9.90;;;7.70;99.60;;;;;;5064820;28;20403;-76
2023/04/06 08:08:46;;;;;;;14.60;10.02;;;7.90;99.30;;;;;;5067161;28;20050;-77
2023/04/06 08:11:12;;;;;;;17.17;10.18;;;8.00;99.10;;;;;;5050733;28;20123;-77
2023/04/06 08:13:38;;;;;;;15.45;9.98;;;8.10;98.90;;;;;;5069056;28;20043;-77
2023/04/06 08:16:04;;;;;;;15.85;10.52;;;8.20;98.70;;;;;;5054690;28;20075;-76
2023/04/06 08:18:30;;;;;;;18.30;11.05;;;8.40;98.70;;;;;;5085023;28;20032;-77
2023/04/06 08:20:56;;;;;;;15.50;10.02;;;8.60;98.30;;;;;;5064827;28;20047;-77
2023/04/06 08:23:22;;;;;;;14.45;9.90;;;8.70;97.70;;;;;;5089353;28;20044;-77
2023/04/06 08:25:48;;;;;;;18.55;11.48;;;8.70;97.80;;;;;;5070147;28;20038;-78
2023/04/06 08:28:14;;;;;;;18.55;11.23;;;8.90;96.90;;;;;;5071098;28;20044;-77
2023/04/06 08:30:43;;;;;;;18.58;11.00;;;8.90;97.10;;;;;;5069908;28;20036;-77
2023/04/06 08:33:09;;;;;;;17.40;10.75;;;9.10;97.10;;;;;;5072810;28;20048;-78
2023/04/06 08:35:36;;;;;;;19.15;10.38;;;9.20;97.10;;;;;;5069747;28;20048;-78
2023/04/06 08:38:02;;;;;;;16.95;11.75;;;9.30;96.40;;;;;;5053256;28;20123;-78
2023/04/06 08:40:28;;;;;;;18.92;12.07;;;9.40;95.90;;;;;;5064816;28;20078;-78
2023/04/06 08:43:02;;;;;;;17.10;11.15;;;9.50;96.00;;;;;;5087278;28;20126;-78
2023/04/06 08:45:28;;;;;;;18.52;11.35;;;9.60;96.00;;;;;;5067458;28;20040;-79
2023/04/06 08:47:56;;;;;;;25.77;11.43;;;9.80;96.00;;;;;;5055463;28;20052;-78
2023/04/06 08:50:23;;;;;;;17.08;11.68;;;9.90;95.10;;;;;;5067157;28;20040;-78
2023/04/06 08:52:49;;;;;;;26.27;12.20;;;10.10;94.60;;;;;;5069411;28;20086;-77
2023/04/06 08:55:15;;;;;;;19.48;11.85;;;10.10;93.70;;;;;;5086075;28;20032;-77
2023/04/06 08:57:42;;;;;;;18.35;12.90;;;10.20;93.80;;;;;;5084735;28;20028;-78
2023/04/06 09:00:10;;;;;;;17.00;11.52;;;10.20;93.70;;;;;;5069958;28;20040;-78
2023/04/06 09:02:42;;;;;;;22.13;13.18;;;10.20;94.20;;;;;;5056625;28;20028;-77
2023/04/06 09:05:10;;;;;;;22.10;14.38;;;10.40;93.90;;;;;;5067342;28;20028;-78
2023/04/06 09:07:37;;;;;;;19.63;13.07;;;10.70;93.40;;;;;;5088943;28;20519;-77
2023/04/06 09:10:07;;;;;;;18.95;12.20;;;10.90;92.40;;;;;;5073593;28;20090;-78
2023/04/06 09:12:33;;;;;;;32.30;14.43;;;11.00;91.50;;;;;;5067634;28;20124;-78
2023/04/06 09:15:00;;;;;;;24.35;13.77;;;11.00;91.10;;;;;;5088222;28;20115;-78
2023/04/06 09:17:33;;;;;;;24.42;12.23;;;11.10;90.70;;;;;;5073995;28;20043;-78
2023/04/06 09:20:03;;;;;;;24.58;13.98;;;11.20;90.70;;;;;;5095039;28;20135;-78
2023/04/06 09:22:37;;;;;;;21.65;12.80;;;11.20;89.00;;;;;;5077053;28;20039;-78
2023/04/06 09:25:03;;;;;;;19.77;12.48;;;11.20;89.20;;;;;;5064397;28;20045;-78
2023/04/06 09:27:38;;;;;;;23.00;14.98;;;11.10;90.30;;;;;;5090439;28;20056;-77
2023/04/06 09:30:05;;;;;;;21.80;14.45;;;11.20;90.80;;;;;;5088241;28;20066;-78
2023/04/06 09:32:30;;;;;;;23.52;14.07;;;11.20;90.40;;;;;;5087832;28;20447;-78
2023/04/06 09:35:07;;;;;;;23.42;14.80;;;11.20;90.20;;;;;;5051263;28;20127;-78
2023/04/06 09:37:33;;;;;;;23.63;14.98;;;11.10;90.30;;;;;;5059700;28;20044;-78
2023/04/06 09:40:07;;;;;;;23.85;13.90;;;11.10;90.10;;;;;;5077282;28;20032;-77
2023/04/06 09:42:34;;;;;;;28.15;16.13;;;11.10;90.50;;;;;;5055581;28;20063;-78
2023/04/06 09:45:00;;;;;;;24.88;13.68;;;11.00;90.50;;;;;;5075254;28;20082;-78
2023/04/06 09:47:26;;;;;;;25.90;15.98;;;11.00;90.20;;;;;;5074702;28;20044;-78
2023/04/06 09:49:57;;;;;;;27.65;15.70;;;11.10;90.10;;;;;;5064485;28;20036;-78
2023/04/06 09:52:27;;;;;;;26.80;16.48;;;11.20;90.10;;;;;;5058505;28;20040;-77
2023/04/06 09:54:59;;;;;;;23.48;14.18;;;11.30;89.80;;;;;;5050250;28;20047;-78
2023/04/06 09:57:57;;;;;;;27.52;15.48;;;11.30;89.80;;;;;;5055645;28;20480;-78
2023/04/06 10:00:25;;;;;;;26.15;16.27;;;11.30;89.30;;;;;;5053524;28;20093;-79
2023/04/06 10:03:13;;;;;;;22.13;16.20;;;11.30;89.90;;;;;;5050389;28;20086;-78
2023/04/06 10:06:11;;;;;;;22.83;14.65;;;11.40;89.70;;;;;;5057536;28;20081;-79
2023/04/06 10:08:40;;;;;;;25.23;14.48;;;11.50;87.50;;;;;;5049365;28;20079;-80
2023/04/06 10:11:07;;;;;;;22.15;14.05;;;11.60;86.20;;;;;;5056586;28;20036;-78
2023/04/06 10:13:33;;;;;;;27.70;16.98;;;11.50;86.30;;;;;;5084682;28;20132;-79
2023/04/06 10:16:01;;;;;;;24.70;15.60;;;11.60;86.70;;;;;;5051188;28;20040;-80
2023/04/06 10:18:27;;;;;;;27.23;17.60;;;11.80;87.70;;;;;;5075101;28;20048;-81
2023/04/06 10:21:06;;;;;;;19.95;12.93;;;12.00;88.50;;;;;;5061612;28;20028;-80
2023/04/06 10:23:41;;;;;;;28.67;16.45;;;12.20;86.00;;;;;;5072259;28;20044;-81
2023/04/06 10:26:13;;;;;;;25.30;14.82;;;12.40;84.00;;;;;;5050447;28;20120;-80
2023/04/06 10:28:41;;;;;;;25.35;15.90;;;12.60;82.90;;;;;;5047490;28;20037;-81
2023/04/06 10:31:07;;;;;;;23.80;14.73;;;12.80;82.10;;;;;;5055694;28;20113;-82
2023/04/06 10:33:33;;;;;;;23.83;15.98;;;12.80;78.40;;;;;;5053818;28;20487;-80
2023/04/06 10:36:30;;;;;;;19.33;11.90;;;12.90;79.30;;;;;;5079632;28;20083;-82
2023/04/06 10:39:00;;;;;;;26.55;15.75;;;13.00;77.70;;;;;;5070603;28;20142;-78
2023/04/06 10:41:42;;;;;;;23.77;15.18;;;12.90;77.10;;;;;;5092045;28;20039;-79
2023/04/06 10:44:16;;;;;;;24.02;15.50;;;12.90;76.10;;;;;;5088884;28;20039;-78
2023/04/06 10:46:56;;;;;;;24.38;14.77;;;12.90;77.40;;;;;;5067661;28;20067;-77
2023/04/06 10:49:22;;;;;;;26.75;15.85;;;12.90;75.40;;;;;;5098680;28;20086;-77
2023/04/06 10:51:53;;;;;;;20.52;12.82;;;12.80;75.40;;;;;;5042122;28;20075;-78
2023/04/06 10:54:21;;;;;;;24.60;14.73;;;12.80;76.30;;;;;;5095750;28;20074;-78
2023/04/06 10:56:47;;;;;;;26.63;15.20;;;12.70;75.90;;;;;;5095912;28;22248;-77
2023/04/06 10:59:12;;;;;;;29.40;15.88;;;12.70;76.00;;;;;;5077189;28;20039;-77
2023/04/06 11:01:44;;;;;;;24.58;15.75;;;12.70;76.40;;;;;;5078016;28;20399;-77
2023/04/06 11:04:13;;;;;;;23.67;15.60;;;12.70;76.10;;;;;;5077275;28;20075;-78
2023/04/06 11:06:39;;;;;;;24.17;15.13;;;12.80;76.20;;;;;;5084641;28;20072;-78
2023/04/06 11:09:05;;;;;;;23.33;14.30;;;12.80;75.30;;;;;;5092218;28;20515;-78
2023/04/06 11:11:31;;;;;;;25.67;14.48;;;12.90;75.90;;;;;;5058980;28;20054;-77
2023/04/06 11:13:58;;;;;;;27.13;17.10;;;12.90;76.70;;;;;;5055551;28;20391;-77
2023/04/06 11:16:31;;;;;;;23.48;15.18;;;12.90;77.60;;;;;;5092617;28;20088;-77
2023/04/06 11:18:59;;;;;;;25.17;15.88;;;13.00;74.50;;;;;;5088081;28;20035;-77
2023/04/06 11:21:43;;;;;;;26.95;14.95;;;12.90;75.40;;;;;;5064410;28;20127;-78
2023/04/06 11:24:14;;;;;;;27.45;15.80;;;12.90;76.30;;;;;;5076735;28;20051;-76
2023/04/06 11:26:48;;;;;;;26.15;15.88;;;13.00;76.90;;;;;;5098208;28;20050;-78
2023/04/06 11:29:20;;;;;;;24.65;15.80;;;13.10;76.90;;;;;;5085433;28;20039;-77
2023/04/06 11:31:52;;;;;;;22.88;15.73;;;13.10;76.90;;;;;;5075445;28;20035;-77
2023/04/06 11:34:23;;;;;;;24.45;13.80;;;13.10;76.90;;;;;;5074599;28;20472;-77
2023/04/06 11:36:57;;;;;;;121.22;20.42;;;13.10;76.00;;;;;;5090416;28;20047;-77
2023/04/06 11:39:26;;;;;;;25.60;13.68;;;13.00;75.90;;;;;;5078243;28;20387;-77
2023/04/06 11:41:54;;;;;;;26.48;15.68;;;13.00;74.80;;;;;;5077178;28;20074;-76
2023/04/06 11:44:48;;;;;;;23.70;14.20;;;13.00;75.60;;;;;;5079567;28;20050;-78
2023/04/06 11:47:15;;;;;;;20.00;12.40;;;13.00;76.00;;;;;;5076854;28;20076;-78
2023/04/06 11:49:44;;;;;;;24.23;15.32;;;13.00;75.80;;;;;;5075614;28;20057;-78
2023/04/06 11:52:23;;;;;;;25.90;15.95;;;13.00;76.10;;;;;;5069350;28;20118;-77
2023/04/06 11:54:50;;;;;;;27.05;16.08;;;12.90;77.40;;;;;;5077272;28;20499;-78
2023/04/06 11:57:17;;;;;;;25.73;15.82;;;12.90;76.80;;;;;;5057082;28;20073;-77
2023/04/06 11:59:43;;;;;;;22.88;15.27;;;12.90;76.90;;;;;;5077111;28;20074;-78
2023/04/06 12:02:10;;;;;;;30.17;17.20;;;13.00;77.60;;;;;;5105362;28;20115;-77
2023/04/06 12:04:36;;;;;;;21.17;11.52;;;13.00;78.30;;;;;;5096260;28;20036;-78
2023/04/06 12:07:03;;;;;;;24.95;14.50;;;13.00;77.20;;;;;;5095745;28;20511;-77
2023/04/06 12:09:29;;;;;;;23.27;13.18;;;12.90;76.00;;;;;;5104694;28;20031;-78
2023/04/06 12:11:55;;;;;;;24.20;14.70;;;12.90;76.80;;;;;;5091157;28;20448;-82
2023/04/06 12:14:21;;;;;;;25.58;14.43;;;12.80;77.10;;;;;;5042768;28;20121;-78
2023/04/06 12:16:47;;;;;;;27.30;14.95;;;12.80;77.80;;;;;;5087621;28;20032;-78
2023/04/06 12:19:13;;;;;;;27.80;14.48;;;12.80;78.40;;;;;;5056786;28;20057;-77
2023/04/06 12:21:40;;;;;;;26.60;14.77;;;12.90;78.10;;;;;;5057480;28;20495;-77
2023/04/06 12:24:06;;;;;;;19.77;12.20;;;12.90;78.10;;;;;;5070854;28;20078;-78
2023/04/06 12:26:32;;;;;;;22.60;13.55;;;12.90;78.60;;;;;;5077783;28;20487;-78
2023/04/06 12:29:06;;;;;;;25.73;14.73;;;12.90;79.30;;;;;;5077066;28;20544;-78
2023/04/06 12:31:34;;;;;;;21.63;14.15;;;12.80;80.40;;;;;;5078441;28;20047;-77
2023/04/06 12:34:01;;;;;;;24.40;15.30;;;12.70;80.70;;;;;;5094976;28;20059;-77
2023/04/06 12:36:27;;;;;;;18.17;8.50;;;12.60;81.90;;;;;;5093918;28;20056;-78
2023/04/06 12:38:53;;;;;;;14.85;8.60;;;12.60;83.20;;;;;;5058633;28;20047;-78
2023/04/06 12:41:19;;;;;;;14.95;9.10;;;12.60;82.90;;;;;;5058315;28;20150;-78